Terminal Aerodrome Forecast
Issued by NWS

Home | Current Version | Previous Version | Text Only | Print | Product List | Glossary On
Versions: 1 2 3 4 5 6 7 8 9 10 11 12 13 14 15 16 17 18 19 20 21 22 23
886
FTUS46 KSEW 051120
TAFHQM
TAF
KHQM 051120Z 0512/0612 00000KT 6SM BR SCT013 BKN070
      TEMPO 0512/0516 5SM BR BKN013 OVC060
     FM051600 33006KT P6SM SCT030 BKN050
     FM052100 33008KT P6SM SCT050
     FM060600 30004KT P6SM SKC=

USA.gov is the U.S. government's official web portal to all federal, state and local government web resources and services.